createdAt,value
2018-04-10T00:00:23.430Z,0
2018-04-10T00:01:04.050Z,0
2018-04-10T00:01:44.607Z,0
2018-04-10T00:02:25.192Z,0
2018-04-10T00:03:05.756Z,0
2018-04-10T00:03:46.321Z,0
2018-04-10T00:04:26.908Z,0
2018-04-10T00:05:07.484Z,0
2018-04-10T00:05:48.078Z,0
2018-04-10T00:06:28.658Z,0
2018-04-10T00:07:09.276Z,0
2018-04-10T00:07:49.786Z,0
2018-04-10T00:08:30.410Z,0
2018-04-10T00:09:10.997Z,0
2018-04-10T00:09:51.563Z,0
2018-04-10T00:10:32.139Z,0
2018-04-10T00:11:12.704Z,0
2018-04-10T00:11:53.269Z,0
2018-04-10T00:12:33.859Z,0
2018-04-10T00:13:14.427Z,0
2018-04-10T00:13:55.007Z,0
2018-04-10T00:14:35.598Z,0
2018-04-10T00:15:16.145Z,0
2018-04-10T00:15:56.701Z,0
2018-04-10T00:16:37.268Z,0
2018-04-10T00:17:17.829Z,0
2018-04-10T00:17:58.407Z,0
2018-04-10T00:18:38.966Z,0
2018-04-10T00:19:19.542Z,0
2018-04-10T00:20:00.139Z,0
2018-04-10T00:20:40.693Z,0
2018-04-10T00:21:21.242Z,0
2018-04-10T00:22:01.824Z,0
2018-04-10T00:22:42.403Z,0
2018-04-10T00:23:22.966Z,0
2018-04-10T00:24:03.611Z,0
2018-04-10T00:24:44.170Z,0
2018-04-10T00:25:24.744Z,0
2018-04-10T00:26:05.320Z,0
2018-04-10T00:26:45.869Z,0
2018-04-10T00:27:26.436Z,0
2018-04-10T00:28:06.986Z,0
2018-04-10T00:28:47.558Z,0
2018-04-10T00:29:28.124Z,0
2018-04-10T00:30:08.716Z,0
2018-04-10T00:30:49.264Z,0
2018-04-10T00:31:29.858Z,0
2018-04-10T00:32:10.436Z,0
2018-04-10T00:32:51.034Z,0
2018-04-10T00:33:31.596Z,0
2018-04-10T00:34:12.208Z,0
2018-04-10T00:34:52.806Z,0
2018-04-10T00:35:33.374Z,0
2018-04-10T00:36:13.942Z,0
2018-04-10T00:36:54.499Z,0
2018-04-10T00:37:35.072Z,0
2018-04-10T00:38:15.640Z,0
2018-04-10T00:38:56.242Z,0
2018-04-10T00:39:36.822Z,0
2018-04-10T00:40:17.379Z,0
2018-04-10T00:40:57.949Z,0
2018-04-10T00:41:38.501Z,0
2018-04-10T00:42:19.184Z,0
2018-04-10T00:42:59.745Z,0
2018-04-10T00:43:40.349Z,0
2018-04-10T00:44:20.895Z,0
2018-04-10T00:45:01.466Z,0
2018-04-10T00:45:42.046Z,0
2018-04-10T00:46:22.620Z,0
2018-04-10T00:47:03.182Z,0
2018-04-10T00:47:43.746Z,0
2018-04-10T00:48:24.319Z,0
2018-04-10T00:49:04.933Z,0
2018-04-10T00:49:45.472Z,0
2018-04-10T00:50:26.037Z,0
2018-04-10T00:51:06.598Z,0
2018-04-10T00:51:47.144Z,0
2018-04-10T00:52:27.711Z,0
2018-04-10T00:53:08.269Z,0
2018-04-10T00:53:48.900Z,0
2018-04-10T00:54:29.522Z,0
2018-04-10T00:55:10.129Z,0
2018-04-10T00:55:50.702Z,0
2018-04-10T00:56:31.289Z,0
2018-04-10T00:57:11.891Z,0
2018-04-10T00:57:52.441Z,0
2018-04-10T00:58:33.034Z,0
2018-04-10T00:59:13.615Z,0
2018-04-10T00:59:54.228Z,0
2018-04-10T01:00:34.782Z,0
2018-04-10T01:01:15.355Z,0
2018-04-10T01:01:56.002Z,0
2018-04-10T01:02:36.613Z,0
2018-04-10T01:03:17.162Z,0
2018-04-10T01:03:57.736Z,0
2018-04-10T01:04:38.295Z,0
2018-04-10T01:05:18.983Z,0
2018-04-10T01:05:59.437Z,0
2018-04-10T01:06:40.000Z,0
2018-04-10T01:07:20.574Z,0
2018-04-10T01:08:01.160Z,0
2018-04-10T01:08:41.734Z,0
2018-04-10T01:09:22.344Z,0
2018-04-10T01:10:03.075Z,0
2018-04-10T01:10:43.765Z,0
2018-04-10T01:11:24.331Z,0
2018-04-10T01:12:04.897Z,0
2018-04-10T01:12:45.476Z,0
2018-04-10T01:13:26.130Z,0
2018-04-10T01:14:06.661Z,0
2018-04-10T01:14:47.286Z,0
2018-04-10T01:15:27.851Z,0
2018-04-10T01:16:08.405Z,0
2018-04-10T01:16:48.972Z,0
2018-04-10T01:17:29.535Z,0
2018-04-10T01:18:10.158Z,0
2018-04-10T01:18:50.831Z,0
2018-04-10T01:19:31.380Z,0
2018-04-10T01:20:11.973Z,0
2018-04-10T01:20:52.558Z,0
2018-04-10T01:21:33.229Z,0
2018-04-10T01:22:13.756Z,0
2018-04-10T01:22:54.346Z,0
2018-04-10T01:23:34.906Z,0
2018-04-10T01:24:15.469Z,0
2018-04-10T01:24:56.036Z,0
2018-04-10T01:25:36.609Z,0
2018-04-10T01:26:17.257Z,0
2018-04-10T01:26:57.861Z,0
2018-04-10T01:27:38.434Z,0
2018-04-10T01:28:18.995Z,0
2018-04-10T01:28:59.614Z,0
2018-04-10T01:29:40.279Z,0
2018-04-10T01:30:20.755Z,0
2018-04-10T01:31:01.328Z,0
2018-04-10T01:31:41.884Z,0
2018-04-10T01:32:22.452Z,0
2018-04-10T01:33:03.016Z,0
2018-04-10T01:33:43.571Z,0
2018-04-10T01:34:24.132Z,0
2018-04-10T01:35:04.715Z,0
2018-04-10T01:35:45.370Z,0
2018-04-10T01:36:25.949Z,0
2018-04-10T01:37:06.511Z,0
2018-04-10T01:37:47.082Z,0
2018-04-10T01:38:27.673Z,0
2018-04-10T01:39:08.226Z,0
2018-04-10T01:39:48.812Z,0
2018-04-10T01:40:29.448Z,0
2018-04-10T01:41:10.012Z,0
2018-04-10T01:41:50.569Z,0
2018-04-10T01:42:31.154Z,0
2018-04-10T01:43:11.752Z,0
2018-04-10T01:43:52.379Z,0
2018-04-10T01:44:32.936Z,0
2018-04-10T01:45:13.544Z,0
2018-04-10T01:45:54.118Z,0
2018-04-10T01:46:34.799Z,0
2018-04-10T01:47:15.275Z,0
2018-04-10T01:47:55.848Z,0
2018-04-10T01:48:36.420Z,0
2018-04-10T01:49:16.991Z,0
2018-04-10T01:49:57.547Z,0
2018-04-10T01:50:38.116Z,0
2018-04-10T01:51:18.725Z,0
2018-04-10T01:51:59.304Z,0
2018-04-10T01:52:39.872Z,0
2018-04-10T01:53:20.478Z,0
2018-04-10T01:54:01.104Z,0
2018-04-10T01:54:41.668Z,0
2018-04-10T01:55:22.232Z,0
2018-04-10T01:56:02.794Z,0
2018-04-10T01:56:43.409Z,0
2018-04-10T01:57:23.989Z,0
2018-04-10T01:58:04.549Z,0
2018-04-10T01:58:45.115Z,0
2018-04-10T01:59:25.688Z,0
2018-04-10T02:00:06.243Z,0
2018-04-10T02:00:46.921Z,0
2018-04-10T02:01:27.497Z,0
2018-04-10T02:02:08.064Z,0
2018-04-10T02:02:48.632Z,0
2018-04-10T02:03:29.257Z,0
2018-04-10T02:04:09.831Z,0
2018-04-10T02:04:50.379Z,0
2018-04-10T02:05:30.934Z,0
2018-04-10T02:06:11.539Z,0
2018-04-10T02:06:52.107Z,0
2018-04-10T02:07:32.671Z,0
2018-04-10T02:08:13.300Z,0
2018-04-10T02:08:53.864Z,0
2018-04-10T02:09:40.986Z,0
2018-04-10T02:16:35.968Z,0
2018-04-10T02:17:16.557Z,0
2018-04-10T02:17:57.131Z,0
2018-04-10T02:18:37.733Z,0
2018-04-10T02:19:18.306Z,0
2018-04-10T02:19:58.893Z,0
2018-04-10T02:20:39.467Z,0
2018-04-10T02:21:20.074Z,0
2018-04-10T02:22:00.635Z,0
2018-04-10T02:22:41.194Z,0
2018-04-10T02:23:21.769Z,0
2018-04-10T02:24:02.338Z,0
2018-04-10T02:24:42.896Z,0
2018-04-10T02:25:23.465Z,0
2018-04-10T02:26:04.149Z,0
2018-04-10T02:26:44.881Z,0
2018-04-10T02:27:25.435Z,0
2018-04-10T02:28:06.007Z,0
2018-04-10T02:28:46.560Z,0
2018-04-10T02:29:27.146Z,0
2018-04-10T02:30:07.681Z,0
2018-04-10T02:30:48.266Z,0
2018-04-10T02:31:28.837Z,0
2018-04-10T02:32:09.403Z,0
2018-04-10T02:32:49.972Z,0
2018-04-10T02:33:30.531Z,0
2018-04-10T02:34:11.084Z,0
2018-04-10T02:34:51.636Z,0
2018-04-10T02:35:32.207Z,0
2018-04-10T02:36:12.792Z,0
2018-04-10T02:36:53.356Z,0
2018-04-10T02:37:33.922Z,0
2018-04-10T02:38:14.583Z,0
2018-04-10T02:38:55.136Z,0
2018-04-10T02:39:35.760Z,0
2018-04-10T02:40:16.325Z,0
2018-04-10T02:40:56.961Z,0
2018-04-10T02:41:37.513Z,0
2018-04-10T02:42:18.128Z,0
2018-04-10T02:42:58.693Z,0
2018-04-10T02:43:39.402Z,0
2018-04-10T02:44:19.989Z,0
2018-04-10T02:45:00.548Z,0
2018-04-10T02:45:41.150Z,0
2018-04-10T02:46:21.799Z,0
2018-04-10T02:47:02.375Z,0
2018-04-10T02:47:42.950Z,0
2018-04-10T02:48:23.509Z,0
2018-04-10T02:49:04.082Z,0
2018-04-10T02:49:44.642Z,0
2018-04-10T02:50:25.212Z,0
2018-04-10T02:51:05.818Z,0
2018-04-10T02:51:46.423Z,0
2018-04-10T02:52:26.998Z,0
2018-04-10T02:53:07.564Z,0
2018-04-10T02:53:48.233Z,0
2018-04-10T02:54:28.802Z,0
2018-04-10T02:55:09.367Z,0
2018-04-10T02:55:49.932Z,0
2018-04-10T02:56:30.496Z,0
2018-04-10T02:57:11.064Z,0
2018-04-10T02:57:51.630Z,0
2018-04-10T02:58:32.196Z,0
2018-04-10T02:59:12.755Z,0
2018-04-10T02:59:53.319Z,0
2018-04-10T03:00:34.051Z,0
2018-04-10T03:01:14.636Z,0
2018-04-10T03:01:55.213Z,0
2018-04-10T03:02:35.795Z,0
2018-04-10T03:03:16.441Z,0
2018-04-10T03:03:56.966Z,0
2018-04-10T03:04:37.666Z,0
2018-04-10T03:05:18.220Z,0
2018-04-10T03:05:58.772Z,0
2018-04-10T03:06:39.357Z,0
2018-04-10T03:07:19.923Z,0
2018-04-10T03:08:00.500Z,0
2018-04-10T03:08:41.118Z,0
2018-04-10T03:09:21.678Z,0
2018-04-10T03:10:02.247Z,0
2018-04-10T03:10:42.956Z,0
2018-04-10T03:11:23.619Z,0
2018-04-10T03:12:04.135Z,0
2018-04-10T03:12:44.689Z,0
2018-04-10T03:13:25.255Z,0
2018-04-10T03:14:05.813Z,0
2018-04-10T03:14:46.366Z,0
2018-04-10T03:15:26.934Z,0
2018-04-10T03:16:07.555Z,0
2018-04-10T03:16:48.123Z,0
2018-04-10T03:17:28.683Z,0
2018-04-10T03:18:09.248Z,0
2018-04-10T03:18:49.809Z,0
2018-04-10T03:19:30.378Z,0
2018-04-10T03:20:11.030Z,0
2018-04-10T03:20:51.605Z,0
2018-04-10T03:21:32.235Z,0
2018-04-10T03:22:12.805Z,0
2018-04-10T03:22:53.364Z,0
2018-04-10T03:23:33.969Z,0
2018-04-10T03:24:14.535Z,0
2018-04-10T03:24:55.169Z,0
2018-04-10T03:25:35.804Z,0
2018-04-10T03:26:16.360Z,0
2018-04-10T03:26:56.937Z,0
2018-04-10T03:27:37.591Z,0
2018-04-10T03:28:18.269Z,0
2018-04-10T03:28:58.761Z,0
2018-04-10T03:29:39.316Z,0
2018-04-10T03:30:19.896Z,0
2018-04-10T03:31:00.453Z,0
2018-04-10T03:31:41.039Z,0
2018-04-10T03:32:21.591Z,0
2018-04-10T03:33:02.163Z,0
2018-04-10T03:33:42.848Z,0
2018-04-10T03:34:23.414Z,0
2018-04-10T03:35:03.997Z,0
2018-04-10T03:35:44.567Z,0
2018-04-10T03:36:25.160Z,0
2018-04-10T03:37:05.770Z,0
2018-04-10T03:37:46.360Z,0
2018-04-10T03:38:26.920Z,0
2018-04-10T03:39:07.489Z,0
2018-04-10T03:39:48.063Z,0
2018-04-10T03:40:28.629Z,0
2018-04-10T03:41:09.386Z,0
2018-04-10T03:41:50.030Z,0
2018-04-10T03:42:30.654Z,0
2018-04-10T03:43:11.216Z,0
2018-04-10T03:43:51.781Z,0
2018-04-10T03:44:32.402Z,0
2018-04-10T03:45:13.041Z,0
2018-04-10T03:45:53.602Z,0
2018-04-10T03:46:34.179Z,0
2018-04-10T03:47:14.732Z,0
2018-04-10T03:47:55.339Z,0
2018-04-10T03:48:35.882Z,0
2018-04-10T03:49:16.449Z,0
2018-04-10T03:49:57.018Z,4
2018-04-10T03:50:37.575Z,4
2018-04-10T03:51:18.166Z,4
2018-04-10T03:51:58.723Z,0
2018-04-10T03:52:39.296Z,0
2018-04-10T03:53:19.874Z,4
2018-04-10T03:54:00.481Z,4
2018-04-10T03:54:41.063Z,0
2018-04-10T03:55:21.636Z,4
2018-04-10T03:56:02.214Z,4
2018-04-10T03:56:42.777Z,4
2018-04-10T03:57:23.355Z,4
2018-04-10T03:58:04.031Z,8
2018-04-10T03:58:44.790Z,8
2018-04-10T03:59:25.754Z,8
2018-04-10T04:00:06.302Z,12
2018-04-10T04:00:46.894Z,12
2018-04-10T04:01:27.462Z,12
2018-04-10T04:02:08.072Z,12
2018-04-10T04:02:48.646Z,16
2018-04-10T04:03:29.251Z,16
2018-04-10T04:04:09.832Z,20
2018-04-10T04:04:50.387Z,16
2018-04-10T04:05:30.958Z,20
2018-04-10T04:06:11.515Z,24
2018-04-10T04:06:52.131Z,28
2018-04-10T04:07:32.772Z,28
2018-04-10T04:08:13.331Z,28
2018-04-10T04:08:53.913Z,36
2018-04-10T04:09:34.470Z,40
2018-04-10T04:10:15.063Z,40
2018-04-10T04:10:55.636Z,44
2018-04-10T04:11:36.196Z,52
2018-04-10T04:12:16.780Z,52
2018-04-10T04:12:57.341Z,56
2018-04-10T04:13:37.893Z,60
2018-04-10T04:14:18.464Z,68
2018-04-10T04:14:59.023Z,76
2018-04-10T04:15:39.631Z,80
2018-04-10T04:16:20.193Z,84
2018-04-10T04:17:00.760Z,92
2018-04-10T04:17:41.324Z,100
2018-04-10T04:18:21.890Z,104
2018-04-10T04:19:02.530Z,112
2018-04-10T04:19:43.102Z,124
2018-04-10T04:20:23.669Z,128
2018-04-10T04:21:04.229Z,140
2018-04-10T04:21:44.792Z,148
2018-04-10T04:22:25.412Z,156
2018-04-10T04:23:05.998Z,168
2018-04-10T04:23:46.566Z,176
2018-04-10T04:24:27.137Z,188
2018-04-10T04:25:07.729Z,200
2018-04-10T04:25:48.297Z,212
2018-04-10T04:26:28.886Z,224
2018-04-10T04:27:09.437Z,236
2018-04-10T04:27:50.018Z,252
2018-04-10T04:28:30.580Z,264
2018-04-10T04:29:11.141Z,280
2018-04-10T04:29:51.705Z,292
2018-04-10T04:30:32.327Z,308
2018-04-10T04:31:12.944Z,328
2018-04-10T04:31:53.498Z,344
2018-04-10T04:32:34.082Z,360
2018-04-10T04:33:14.654Z,380
2018-04-10T04:33:55.247Z,400
2018-04-10T04:34:35.808Z,416
2018-04-10T04:35:16.446Z,440
2018-04-10T04:35:57.068Z,460
2018-04-10T04:36:37.773Z,480
2018-04-10T04:37:18.348Z,500
2018-04-10T04:37:58.917Z,524
2018-04-10T04:38:39.481Z,548
2018-04-10T04:39:20.079Z,568
2018-04-10T04:40:00.655Z,592
2018-04-10T04:40:41.437Z,620
2018-04-10T04:41:22.022Z,648
2018-04-10T04:42:02.598Z,668
2018-04-10T04:42:43.189Z,696
2018-04-10T04:43:23.958Z,724
2018-04-10T04:44:04.385Z,752
2018-04-10T04:44:44.975Z,780
2018-04-10T04:45:25.530Z,808
2018-04-10T04:46:06.148Z,840
2018-04-10T04:46:46.772Z,868
2018-04-10T04:47:27.347Z,896
2018-04-10T04:48:07.977Z,924
2018-04-10T04:48:48.542Z,960
2018-04-10T04:49:29.131Z,988
2018-04-10T04:50:09.678Z,1020
2018-04-10T04:50:50.263Z,1048
2018-04-10T04:51:30.820Z,1080
2018-04-10T04:52:11.622Z,1112
2018-04-10T04:52:52.210Z,1144
2018-04-10T04:53:32.893Z,1176
2018-04-10T04:54:13.390Z,1208
2018-04-10T04:54:53.987Z,1240
2018-04-10T04:55:34.532Z,1276
2018-04-10T04:56:15.083Z,1312
2018-04-10T04:56:55.797Z,1348
2018-04-10T04:57:36.411Z,1384
2018-04-10T04:58:16.976Z,1420
2018-04-10T04:58:57.524Z,1456
2018-04-10T04:59:38.095Z,1500
2018-04-10T05:00:18.642Z,1536
2018-04-10T05:00:59.305Z,1576
2018-04-10T05:01:39.867Z,1616
2018-04-10T05:02:20.521Z,1660
2018-04-10T05:03:01.241Z,1696
2018-04-10T05:03:41.828Z,1740
2018-04-10T05:04:22.388Z,1780
2018-04-10T05:05:02.968Z,1824
2018-04-10T05:05:43.536Z,1868
2018-04-10T05:06:24.252Z,1912
2018-04-10T05:07:04.834Z,1956
2018-04-10T05:07:45.375Z,2000
2018-04-10T05:08:26.008Z,2044
2018-04-10T05:09:06.755Z,2084
2018-04-10T05:09:47.367Z,2128
2018-04-10T05:10:27.959Z,2176
2018-04-10T05:11:08.518Z,2220
2018-04-10T05:11:49.106Z,2268
2018-04-10T05:12:29.672Z,2312
2018-04-10T05:13:10.253Z,2356
2018-04-10T05:13:50.908Z,2404
2018-04-10T05:14:31.508Z,2448
2018-04-10T05:15:12.056Z,2500
2018-04-10T05:15:52.709Z,2540
2018-04-10T05:16:33.268Z,2588
2018-04-10T05:17:13.838Z,2632
2018-04-10T05:17:54.495Z,2680
2018-04-10T05:18:35.238Z,2732
2018-04-10T05:19:15.860Z,2780
2018-04-10T05:19:56.513Z,2832
2018-04-10T05:20:37.088Z,2880
2018-04-10T05:21:17.634Z,2928
2018-04-10T05:21:58.229Z,2984
2018-04-10T05:22:39.008Z,3036
2018-04-10T05:23:19.577Z,3088
2018-04-10T05:24:00.143Z,3132
2018-04-10T05:24:40.748Z,3188
2018-04-10T05:25:21.302Z,3240
2018-04-10T05:26:02.034Z,3292
2018-04-10T05:26:42.615Z,3348
2018-04-10T05:27:23.210Z,3404
2018-04-10T05:28:03.779Z,3460
2018-04-10T05:28:44.403Z,3516
2018-04-10T05:29:24.999Z,3572
2018-04-10T05:30:05.585Z,3636
2018-04-10T05:30:46.226Z,3688
2018-04-10T05:31:26.792Z,3748
2018-04-10T05:32:07.351Z,3804
2018-04-10T05:32:47.928Z,3864
2018-04-10T05:33:28.525Z,3936
2018-04-10T05:34:09.115Z,3984
2018-04-10T05:34:49.842Z,4052
2018-04-10T05:35:30.347Z,4108
2018-04-10T05:36:10.950Z,4176
2018-04-10T05:36:51.551Z,4240
2018-04-10T05:37:32.064Z,4296
2018-04-10T05:38:12.628Z,4360
2018-04-10T05:38:53.197Z,4424
2018-04-10T05:39:33.744Z,4484
2018-04-10T05:40:14.302Z,4544
2018-04-10T05:40:54.994Z,4600
2018-04-10T05:41:35.582Z,4660
2018-04-10T05:42:16.143Z,4724
2018-04-10T05:42:56.779Z,4780
2018-04-10T05:43:37.622Z,4844
2018-04-10T05:44:18.286Z,4904
2018-04-10T05:44:58.861Z,4964
2018-04-10T05:45:39.467Z,5020
2018-04-10T05:46:20.024Z,5080
2018-04-10T05:47:00.670Z,5144
2018-04-10T05:47:41.239Z,5200
2018-04-10T05:48:21.853Z,5256
2018-04-10T05:49:03.093Z,5332
2018-04-10T05:49:43.654Z,5388
2018-04-10T05:50:24.358Z,5448
2018-04-10T05:51:05.031Z,5512
2018-04-10T05:51:45.648Z,5588
2018-04-10T05:52:26.604Z,5644
2018-04-10T05:53:07.190Z,5712
2018-04-10T05:53:47.729Z,5784
2018-04-10T05:54:28.324Z,5848
2018-04-10T05:55:08.879Z,5920
2018-04-10T05:55:49.485Z,5984
2018-04-10T05:56:30.114Z,6048
2018-04-10T05:57:10.681Z,6120
2018-04-10T05:57:51.254Z,6188
2018-04-10T05:58:31.876Z,6244
2018-04-10T05:59:12.496Z,6308
2018-04-10T05:59:53.688Z,6388
2018-04-10T06:00:35.142Z,6452
2018-04-10T06:01:16.313Z,6520
2018-04-10T06:01:56.896Z,6580
2018-04-10T06:02:37.537Z,6648
2018-04-10T06:03:18.118Z,6736
2018-04-10T06:03:59.219Z,6796
2018-04-10T06:04:39.500Z,6860
2018-04-10T06:05:20.162Z,6948
2018-04-10T06:06:00.737Z,7020
2018-04-10T06:06:41.325Z,7100
2018-04-10T06:07:21.940Z,7180
2018-04-10T06:08:02.564Z,7260
2018-04-10T06:08:43.144Z,7328
2018-04-10T06:09:23.868Z,7424
2018-04-10T06:10:04.649Z,7516
2018-04-10T06:10:45.248Z,7596
2018-04-10T06:11:25.817Z,7676
2018-04-10T06:12:07.434Z,7776
2018-04-10T06:12:48.022Z,7860
2018-04-10T06:13:28.612Z,7952
2018-04-10T06:14:09.298Z,8036
2018-04-10T06:14:49.952Z,8124
2018-04-10T06:15:30.601Z,8220
2018-04-10T06:16:11.275Z,8300
2018-04-10T06:16:51.852Z,8400
2018-04-10T06:17:32.450Z,8488
2018-04-10T06:18:13.004Z,8576
2018-04-10T06:18:53.571Z,8680
2018-04-10T06:19:34.154Z,8772
2018-04-10T06:20:14.735Z,8876
2018-04-10T06:20:55.309Z,9004
2018-04-10T06:21:35.878Z,9128
2018-04-10T06:22:16.453Z,9240
2018-04-10T06:22:57.150Z,9380
2018-04-10T06:23:37.579Z,9500
2018-04-10T06:24:18.129Z,9656
2018-04-10T06:24:58.701Z,9800
2018-04-10T06:25:39.261Z,9932
2018-04-10T06:26:19.844Z,10096
2018-04-10T06:27:00.463Z,10252
2018-04-10T06:27:40.973Z,10416
2018-04-10T06:28:21.559Z,10560
2018-04-10T06:29:02.268Z,10740
2018-04-10T06:29:42.832Z,10888
2018-04-10T06:30:23.392Z,11072
2018-04-10T06:31:04.008Z,11244
2018-04-10T06:31:44.563Z,11468
2018-04-10T06:32:25.155Z,16512
2018-04-10T06:33:05.723Z,26944
2018-04-10T06:33:46.413Z,40320
2018-04-10T06:34:26.974Z,48416
2018-04-10T06:35:07.540Z,49824
2018-04-10T06:35:48.151Z,49696
2018-04-10T06:36:28.719Z,49792
2018-04-10T06:37:09.399Z,51232
2018-04-10T06:37:49.968Z,52160
2018-04-10T06:38:30.571Z,53792
2018-04-10T06:39:11.131Z,55520
2018-04-10T06:39:51.715Z,55360
2018-04-10T06:40:32.273Z,54176
2018-04-10T06:41:12.929Z,53120
2018-04-10T06:41:53.522Z,53856
2018-04-10T06:42:34.305Z,55136
2018-04-10T06:43:14.888Z,55552
2018-04-10T06:43:55.438Z,55104
2018-04-10T06:44:36.054Z,54688
2018-04-10T06:45:16.638Z,55072
2018-04-10T06:45:57.271Z,55968
2018-04-10T06:46:37.879Z,56672
2018-04-10T06:47:18.453Z,57376
2018-04-10T06:47:59.059Z,58048
2018-04-10T06:48:39.663Z,57920
2018-04-10T06:49:20.273Z,56800
2018-04-10T06:50:00.829Z,56224
2018-04-10T06:50:41.411Z,56448
2018-04-10T06:51:21.978Z,57536
2018-04-10T06:52:02.555Z,58048
2018-04-10T06:52:43.123Z,57760
2018-04-10T06:53:23.707Z,56288
2018-04-10T06:54:04.273Z,55872
2018-04-10T06:54:44.846Z,56896
2018-04-10T06:55:25.417Z,57504
2018-04-10T06:56:06.066Z,57216
2018-04-10T06:56:46.638Z,56224
2018-04-10T06:57:27.208Z,55584
2018-04-10T06:58:07.808Z,57024
2018-04-10T06:58:48.378Z,58208
2018-04-10T06:59:28.956Z,58720
2018-04-10T07:00:09.521Z,58720
2018-04-10T07:00:50.205Z,58944
2018-04-10T07:01:30.789Z,59104
2018-04-10T07:02:11.359Z,59744
2018-04-10T07:02:51.940Z,60032
2018-04-10T07:03:32.514Z,59840
2018-04-10T07:04:13.154Z,61216
2018-04-10T07:04:53.803Z,63104
2018-04-10T07:05:34.402Z,63488
2018-04-10T07:06:14.967Z,62432
2018-04-10T07:06:55.595Z,62400
2018-04-10T07:07:36.162Z,61248
2018-04-10T07:08:16.732Z,60992
2018-04-10T07:08:57.331Z,60992
2018-04-10T07:09:38.058Z,60224
2018-04-10T07:10:18.634Z,60960
2018-04-10T07:10:59.222Z,63136
2018-04-10T07:11:39.802Z,62880
2018-04-10T07:12:20.401Z,60064
2018-04-10T07:13:01.019Z,58368
2018-04-10T07:13:41.663Z,59008
2018-04-10T07:14:22.228Z,62208
2018-04-10T07:15:02.878Z,64544
2018-04-10T07:15:43.435Z,65952
2018-04-10T07:16:24.152Z,65792
2018-04-10T07:17:04.752Z,65760
2018-04-10T07:17:48.270Z,67136
2018-04-10T07:18:28.846Z,69408
2018-04-10T07:19:09.566Z,70208
2018-04-10T07:19:50.096Z,70112
2018-04-10T07:20:30.705Z,69792
2018-04-10T07:21:11.279Z,70784
2018-04-10T07:21:51.850Z,72384
2018-04-10T07:22:32.446Z,71680
2018-04-10T07:23:13.019Z,69696
2018-04-10T07:23:54.934Z,69984
2018-04-10T07:24:34.427Z,70784
2018-04-10T07:25:15.167Z,71648
2018-04-10T07:25:55.758Z,72896
2018-04-10T07:26:36.381Z,73760
2018-04-10T07:27:17.079Z,73728
2018-04-10T07:27:57.597Z,73056
2018-04-10T07:28:38.166Z,72896
2018-04-10T07:29:18.843Z,73728
2018-04-10T07:29:59.413Z,73440
2018-04-10T07:30:40.097Z,72672
2018-04-10T07:31:20.666Z,72288
2018-04-10T07:32:01.234Z,72096
2018-04-10T07:32:41.824Z,71008
2018-04-10T07:33:22.406Z,70464
2018-04-10T07:34:03.023Z,71104
2018-04-10T07:34:43.580Z,72480
2018-04-10T07:35:24.292Z,71872
2018-04-10T07:36:04.876Z,71552
2018-04-10T07:36:45.482Z,71488
2018-04-10T07:37:26.046Z,71264
2018-04-10T07:38:06.805Z,71360
2018-04-10T07:38:47.405Z,72192
2018-04-10T07:39:27.981Z,71008
2018-04-10T07:40:15.794Z,68032
2018-04-10T07:40:56.353Z,69376
2018-04-10T07:41:36.951Z,71200
2018-04-10T07:42:17.664Z,70848
2018-04-10T07:42:58.486Z,71872
2018-04-10T07:43:39.061Z,73792
2018-04-10T07:44:19.825Z,74240
2018-04-10T07:45:00.413Z,74112
2018-04-10T07:45:40.999Z,73440
2018-04-10T07:46:21.572Z,73184
2018-04-10T07:47:02.179Z,73216
2018-04-10T07:47:42.814Z,72608
2018-04-10T07:48:23.568Z,71264
2018-04-10T07:49:04.140Z,71488
2018-04-10T07:49:44.716Z,72064
2018-04-10T07:50:25.363Z,71456
2018-04-10T07:51:05.941Z,71232
2018-04-10T07:51:46.546Z,72608
2018-04-10T07:52:27.143Z,73024
2018-04-10T07:53:07.792Z,71392
2018-04-10T07:53:48.366Z,71424
2018-04-10T07:54:28.989Z,71968
2018-04-10T07:55:09.557Z,72160
2018-04-10T07:55:50.129Z,72928
2018-04-10T07:56:30.820Z,72576
2018-04-10T07:57:11.434Z,70944
2018-04-10T07:57:52.049Z,69408
2018-04-10T07:58:32.594Z,70464
2018-04-10T07:59:13.170Z,72224
2018-04-10T07:59:53.754Z,72576
2018-04-10T08:00:34.327Z,73088
2018-04-10T08:01:14.923Z,73632
2018-04-10T08:01:55.487Z,73248
2018-04-10T08:02:36.064Z,72704
2018-04-10T08:03:16.638Z,72192
2018-04-10T08:03:57.234Z,72032
2018-04-10T08:04:37.803Z,72928
2018-04-10T08:05:18.377Z,71872
2018-04-10T08:05:58.970Z,68544
2018-04-10T08:06:39.547Z,66816
2018-04-10T08:07:20.129Z,69952
2018-04-10T08:08:00.704Z,71392
2018-04-10T08:08:41.282Z,71264
2018-04-10T08:09:21.874Z,70048
2018-04-10T08:10:02.486Z,68960
2018-04-10T08:10:43.062Z,69280
2018-04-10T08:11:23.643Z,70048
2018-04-10T08:12:04.256Z,71008
2018-04-10T08:12:44.877Z,64352
2018-04-10T08:13:25.468Z,46208
2018-04-10T08:14:06.058Z,28416
2018-04-10T08:14:46.680Z,23040
2018-04-10T08:15:27.268Z,22528
2018-04-10T08:16:07.835Z,22048
2018-04-10T08:16:48.419Z,21664
2018-04-10T08:17:29.013Z,21312
2018-04-10T08:18:09.592Z,20800
2018-04-10T08:18:50.162Z,20320
2018-04-10T08:19:30.867Z,19968
2018-04-10T08:20:11.456Z,19520
2018-04-10T08:20:52.044Z,19072
2018-04-10T08:21:32.791Z,18656
2018-04-10T08:22:13.573Z,18240
2018-04-10T08:22:53.967Z,17792
2018-04-10T08:23:34.533Z,17376
2018-04-10T08:24:15.141Z,16960
2018-04-10T08:24:55.717Z,16608
2018-04-10T08:25:36.322Z,16224
2018-04-10T08:26:16.897Z,15728
2018-04-10T08:26:57.478Z,15360
2018-04-10T08:27:38.144Z,15088
2018-04-10T08:28:18.787Z,14724
2018-04-10T08:28:59.375Z,14452
2018-04-10T08:29:39.958Z,14204
2018-04-10T08:30:20.534Z,13920
2018-04-10T08:31:01.111Z,13680
2018-04-10T08:31:41.874Z,13460
2018-04-10T08:32:22.321Z,13204
2018-04-10T08:33:02.893Z,13004
2018-04-10T08:33:43.495Z,12788
2018-04-10T08:34:24.071Z,12592
2018-04-10T08:35:04.640Z,12404
2018-04-10T08:35:45.200Z,12232
2018-04-10T08:36:25.787Z,12064
2018-04-10T08:37:06.413Z,11916
2018-04-10T08:37:47.118Z,11760
2018-04-10T08:38:27.702Z,11576
2018-04-10T08:39:08.349Z,11428
2018-04-10T08:39:49.005Z,11308
2018-04-10T08:40:29.576Z,11152
2018-04-10T08:41:10.185Z,11016
2018-04-10T08:41:50.754Z,10872
2018-04-10T08:42:31.428Z,10764
2018-04-10T08:43:12.005Z,10648
2018-04-10T08:43:52.570Z,10576
2018-04-10T08:44:33.130Z,10524
2018-04-10T08:45:13.732Z,10400
2018-04-10T08:45:54.378Z,10308
2018-04-10T08:46:34.934Z,10212
2018-04-10T08:47:15.628Z,10100
2018-04-10T08:47:56.197Z,9988
2018-04-10T08:48:36.779Z,9920
2018-04-10T08:49:17.495Z,9784
2018-04-10T08:49:58.122Z,9704
2018-04-10T08:50:38.724Z,9668
2018-04-10T08:51:19.286Z,9588
2018-04-10T08:51:59.891Z,9512
2018-04-10T08:52:40.457Z,9452
2018-04-10T08:53:21.025Z,9376
2018-04-10T08:54:01.601Z,9312
2018-04-10T08:54:42.170Z,9284
2018-04-10T08:55:22.761Z,9188
2018-04-10T08:56:03.334Z,9084
2018-04-10T08:56:44.029Z,9016
2018-04-10T08:57:24.594Z,8912
2018-04-10T08:58:05.163Z,8860
2018-04-10T08:58:45.887Z,8860
2018-04-10T08:59:26.466Z,8788
2018-04-10T09:00:07.018Z,8772
2018-04-10T09:00:47.583Z,8708
2018-04-10T09:01:28.279Z,8636
2018-04-10T09:02:08.919Z,8560
2018-04-10T09:02:49.446Z,8508
2018-04-10T09:03:30.011Z,8464
2018-04-10T09:04:10.590Z,8432
2018-04-10T09:04:51.139Z,8376
2018-04-10T09:05:31.723Z,8320
2018-04-10T09:06:12.441Z,8280
2018-04-10T09:06:53.014Z,8228
2018-04-10T09:07:33.578Z,8164
2018-04-10T09:08:14.242Z,8132
2018-04-10T09:08:54.816Z,8096
2018-04-10T09:09:35.495Z,8064
2018-04-10T09:10:16.081Z,8040
2018-04-10T09:10:56.786Z,8008
2018-04-10T09:11:37.349Z,7932
2018-04-10T09:12:17.933Z,7892
2018-04-10T09:12:58.500Z,7872
2018-04-10T09:13:39.083Z,7852
2018-04-10T09:14:19.717Z,7800
2018-04-10T09:15:00.302Z,7784
2018-04-10T09:15:40.946Z,7768
2018-04-10T09:16:21.508Z,7688
2018-04-10T09:17:02.103Z,7620
2018-04-10T09:17:42.687Z,7592
2018-04-10T09:18:23.264Z,7608
2018-04-10T09:19:03.856Z,7588
2018-04-10T09:19:44.412Z,7568
2018-04-10T09:20:24.976Z,7540
2018-04-10T09:21:05.545Z,7504
2018-04-10T09:21:46.137Z,7436
2018-04-10T09:22:26.713Z,7396
2018-04-10T09:23:07.278Z,7372
2018-04-10T09:23:47.882Z,7352
2018-04-10T09:24:28.539Z,7356
2018-04-10T09:25:09.115Z,7308
2018-04-10T09:25:49.697Z,7260
2018-04-10T09:26:30.276Z,7192
2018-04-10T09:27:10.871Z,7176
2018-04-10T09:27:51.621Z,7148